Here is the Quick Look data you requested

The Data originates at the National Weather Service, and is made available here by the UAlbany Department of Atmospheric and Environmental Sciences

Surface Observations

KBDL 271451Z 00000KT 10SM FEW015 OVC050 19/15 A3000 RMK AO2 SLP157 60005
 T01890150 56014=
KBDR 271452Z 18005KT 10SM FEW055 SCT110 21/13 A3000 RMK AO2 SLP159 60001
 T02060133 55005 $=
KDXR 271453Z 20007KT 10SM FEW020 BKN090 19/16 A3001 RMK AO2 SLP158 6////
 T01940156 58008 PNO $=
KGON 271456Z 09008KT 10SM FEW070 19/17 A2999 RMK AO2 RAE38 SLP154 P0004 60007
 T01940172 58005=
KHFD 271453Z 00000KT 10SM BKN055 BKN070 19/15 A2999 RMK AO2 SLP155 P0001 60004
 T01940150 56016=
KHVN 271453Z 15004KT 10SM SCT055 SCT090 BKN250 21/13 A3000 RMK AO2 SLP159 60000
 T02110128 55012=
KIJD 271452Z AUTO 18004KT 10SM BKN070 BKN085 20/16 A3000 RMK AO2 RAE1354 SLP156
 P0001 60006 T02000156 58015=
KMMK 271453Z AUTO 00000KT 10SM BKN055 21/15 A2999 RMK AO2 SLP155 60002
 T02060150 55013 TSNO=
KOXC 271445Z 21005KT 10SM BKN040 OVC100 19/13 A3001=